createdAt,value
2023-01-12T00:00:27.840Z,100.00
2023-01-12T00:03:02.939Z,100.00
2023-01-12T00:05:32.141Z,100.00
2023-01-12T00:08:01.412Z,100.00
2023-01-12T00:10:30.607Z,100.00
2023-01-12T00:12:59.849Z,100.00
2023-01-12T00:15:58.454Z,100.00
2023-01-12T00:18:29.321Z,100.00
2023-01-12T00:20:58.605Z,100.00
2023-01-12T00:23:33.500Z,100.00
2023-01-12T00:26:02.664Z,100.00
2023-01-12T00:28:31.785Z,100.00
2023-01-12T00:31:05.003Z,100.00
2023-01-12T00:33:36.099Z,100.00
2023-01-12T00:36:06.910Z,100.00
2023-01-12T00:38:36.832Z,100.00
2023-01-12T00:41:07.449Z,100.00
2023-01-12T00:43:50.962Z,100.00
2023-01-12T00:46:20.207Z,100.00
2023-01-12T00:48:52.815Z,100.00
2023-01-12T00:51:22.306Z,100.00
2023-01-12T00:53:51.527Z,100.00
2023-01-12T00:56:20.792Z,100.00
2023-01-12T00:58:49.890Z,100.00
2023-01-12T01:01:19.096Z,100.00
2023-01-12T01:03:48.455Z,100.00
2023-01-12T01:06:19.131Z,100.00
2023-01-12T01:08:48.854Z,100.00
2023-01-12T01:11:18.550Z,100.00
2023-01-12T01:13:49.130Z,100.00
2023-01-12T01:16:19.222Z,100.00
2023-01-12T01:18:48.347Z,100.00
2023-01-12T01:21:19.856Z,100.00
2023-01-12T01:23:49.361Z,100.00
2023-01-12T01:26:23.131Z,100.00
2023-01-12T01:28:56.863Z,100.00
2023-01-12T01:31:27.688Z,100.00
2023-01-12T01:33:56.951Z,100.00
2023-01-12T01:36:27.872Z,100.00
2023-01-12T01:38:57.133Z,100.00
2023-01-12T01:41:29.089Z,100.00
2023-01-12T01:44:01.345Z,100.00
2023-01-12T01:46:41.503Z,100.00
2023-01-12T01:49:29.404Z,100.00
2023-01-12T01:52:01.816Z,100.00
2023-01-12T01:54:34.965Z,100.00
2023-01-12T01:57:05.961Z,100.00
2023-01-12T01:59:37.461Z,100.00
2023-01-12T02:02:07.405Z,100.00
2023-01-12T02:04:37.251Z,100.00
2023-01-12T02:07:11.451Z,100.00
2023-01-12T02:09:45.120Z,100.00
2023-01-12T02:12:32.499Z,100.00
2023-01-12T02:15:19.262Z,100.00
2023-01-12T02:18:02.435Z,100.00
2023-01-12T02:20:48.628Z,100.00
2023-01-12T02:24:10.057Z,100.00
2023-01-12T02:27:38.265Z,100.00
2023-01-12T02:30:52.499Z,100.00
2023-01-12T02:33:41.396Z,100.00
2023-01-12T02:36:20.562Z,100.00
2023-01-12T02:38:56.404Z,100.00
2023-01-12T02:41:54.730Z,100.00
2023-01-12T02:44:29.264Z,100.00
2023-01-12T02:47:02.083Z,100.00
2023-01-12T02:49:39.259Z,100.00
2023-01-12T02:52:14.361Z,100.00
2023-01-12T02:54:48.257Z,100.00
2023-01-12T02:57:18.214Z,100.00
2023-01-12T02:59:50.765Z,100.00
2023-01-12T03:02:23.755Z,100.00
2023-01-12T03:04:55.279Z,100.00
2023-01-12T03:07:42.464Z,100.00
2023-01-12T03:10:37.678Z,100.00
2023-01-12T03:13:11.913Z,100.00
2023-01-12T03:15:46.672Z,100.00
2023-01-12T03:18:19.905Z,100.00
2023-01-12T03:20:54.937Z,100.00
2023-01-12T03:23:32.596Z,100.00
2023-01-12T03:26:03.816Z,100.00
2023-01-12T03:28:37.867Z,100.00
2023-01-12T03:31:11.363Z,100.00
2023-01-12T03:33:42.765Z,100.00
2023-01-12T03:36:24.711Z,100.00
2023-01-12T03:39:03.993Z,100.00
2023-01-12T03:41:47.325Z,100.00
2023-01-12T03:44:22.718Z,100.00
2023-01-12T03:46:58.902Z,100.00
2023-01-12T03:49:35.943Z,100.00
2023-01-12T03:52:08.280Z,100.00
2023-01-12T03:54:40.352Z,100.00
2023-01-12T03:57:12.228Z,100.00
2023-01-12T03:59:41.824Z,100.00
2023-01-12T04:02:11.175Z,100.00
2023-01-12T04:04:40.428Z,100.00
2023-01-12T04:07:10.938Z,100.00
2023-01-12T04:09:41.160Z,100.00
2023-01-12T04:12:13.687Z,100.00
2023-01-12T04:14:47.913Z,100.00
2023-01-12T04:17:19.215Z,100.00
2023-01-12T04:19:48.916Z,100.00
2023-01-12T04:22:38.114Z,100.00
2023-01-12T04:25:09.660Z,100.00
2023-01-12T04:27:43.334Z,100.00
2023-01-12T04:30:15.444Z,100.00
2023-01-12T04:32:45.160Z,100.00
2023-01-12T04:35:14.425Z,100.00
2023-01-12T04:37:45.911Z,100.00
2023-01-12T04:40:16.999Z,100.00
2023-01-12T04:43:07.286Z,100.00
2023-01-12T04:45:39.936Z,100.00
2023-01-12T04:48:11.430Z,100.00
2023-01-12T04:50:41.723Z,100.00
2023-01-12T04:53:13.877Z,100.00
2023-01-12T04:55:44.600Z,100.00
2023-01-12T04:58:13.925Z,100.00
2023-01-12T05:00:43.584Z,100.00
2023-01-12T05:03:13.748Z,100.00
2023-01-12T05:05:43.488Z,100.00
2023-01-12T05:08:31.879Z,100.00
2023-01-12T05:11:02.473Z,100.00
2023-01-12T05:13:33.045Z,100.00
2023-01-12T05:16:11.779Z,100.00
2023-01-12T05:18:41.122Z,100.00
2023-01-12T05:21:13.296Z,100.00
2023-01-12T05:23:44.080Z,100.00
2023-01-12T05:26:14.324Z,100.00
2023-01-12T05:28:43.648Z,100.00
2023-01-12T05:31:15.075Z,100.00
2023-01-12T05:33:44.739Z,100.00
2023-01-12T05:36:20.589Z,100.00
2023-01-12T05:38:51.136Z,100.00
2023-01-12T05:41:23.028Z,100.00
2023-01-12T05:43:51.377Z,100.00
2023-01-12T05:46:23.580Z,100.00
2023-01-12T05:48:54.607Z,100.00
2023-01-12T05:51:25.328Z,100.00
2023-01-12T05:53:56.015Z,100.00
2023-01-12T05:56:27.700Z,100.00
2023-01-12T05:58:59.490Z,100.00
2023-01-12T06:01:29.439Z,100.00
2023-01-12T06:04:00.910Z,100.00
2023-01-12T06:06:32.490Z,100.00
2023-01-12T06:09:04.080Z,100.00
2023-01-12T06:11:50.728Z,100.00
2023-01-12T06:14:19.939Z,100.00
2023-01-12T06:16:49.156Z,100.00
2023-01-12T06:19:18.398Z,100.00
2023-01-12T06:21:47.664Z,100.00
2023-01-12T06:24:18.390Z,100.00
2023-01-12T06:26:47.648Z,100.00
2023-01-12T06:29:16.981Z,100.00
2023-01-12T06:31:46.164Z,100.00
2023-01-12T06:34:15.612Z,100.00
2023-01-12T06:36:45.094Z,100.00
2023-01-12T06:39:14.811Z,100.00
2023-01-12T06:42:03.007Z,100.00
2023-01-12T06:44:32.167Z,100.00
2023-01-12T06:47:03.677Z,100.00
2023-01-12T06:49:35.904Z,100.00
2023-01-12T06:52:05.340Z,100.00
2023-01-12T06:54:34.473Z,100.00
2023-01-12T06:57:05.394Z,100.00
2023-01-12T06:59:34.836Z,100.00
2023-01-12T07:02:04.370Z,100.00
2023-01-12T07:04:33.568Z,100.00
2023-01-12T07:07:02.859Z,100.00
2023-01-12T07:09:31.968Z,100.00
2023-01-12T07:12:01.399Z,100.00
2023-01-12T07:14:32.078Z,100.00
2023-01-12T07:17:01.383Z,100.00
2023-01-12T07:19:30.445Z,100.00
2023-01-12T07:21:59.656Z,100.00
2023-01-12T07:24:28.988Z,100.00
2023-01-12T07:27:01.602Z,100.00
2023-01-12T07:29:32.217Z,100.00
2023-01-12T07:32:03.466Z,100.00
2023-01-12T07:34:35.679Z,100.00
2023-01-12T07:37:04.870Z,100.00
2023-01-12T07:39:33.881Z,100.00
2023-01-12T07:42:20.813Z,100.00
2023-01-12T07:44:51.454Z,100.00
2023-01-12T07:47:20.808Z,100.00
2023-01-12T07:49:50.001Z,100.00
2023-01-12T07:52:19.065Z,100.00
2023-01-12T07:54:48.149Z,100.00
2023-01-12T07:57:18.360Z,100.00
2023-01-12T07:59:47.555Z,100.00
2023-01-12T08:02:19.362Z,100.00
2023-01-12T08:04:48.829Z,100.00
2023-01-12T08:07:18.181Z,100.00
2023-01-12T08:09:47.318Z,100.00
2023-01-12T08:12:16.577Z,100.00
2023-01-12T08:14:45.678Z,100.00
2023-01-12T08:17:20.174Z,100.00
2023-01-12T08:19:55.377Z,100.00
2023-01-12T08:22:30.390Z,100.00
2023-01-12T08:25:07.118Z,100.00
2023-01-12T08:27:41.914Z,100.00
2023-01-12T08:30:14.765Z,100.00
2023-01-12T08:32:46.647Z,100.00
2023-01-12T08:35:21.061Z,100.00
2023-01-12T08:37:50.344Z,100.00
2023-01-12T08:40:20.000Z,100.00
2023-01-12T08:42:50.064Z,100.00
2023-01-12T08:45:20.931Z,100.00
2023-01-12T08:47:51.601Z,100.00
2023-01-12T08:50:22.618Z,100.00
2023-01-12T08:52:51.800Z,100.00
2023-01-12T08:55:20.932Z,100.00
2023-01-12T08:57:50.053Z,100.00
2023-01-12T09:00:21.444Z,100.00
2023-01-12T09:02:52.084Z,100.00
2023-01-12T09:05:21.496Z,100.00
2023-01-12T09:07:50.682Z,100.00
2023-01-12T09:10:22.957Z,100.00
2023-01-12T09:12:52.248Z,100.00
2023-01-12T09:15:21.319Z,100.00
2023-01-12T09:17:55.148Z,100.00
2023-01-12T09:20:24.657Z,100.00
2023-01-12T09:22:53.979Z,100.00
2023-01-12T09:25:23.083Z,100.00
2023-01-12T09:27:52.268Z,100.00
2023-01-12T09:30:21.720Z,100.00
2023-01-12T09:32:50.908Z,100.00
2023-01-12T09:35:22.179Z,100.00
2023-01-12T09:37:51.318Z,100.00
2023-01-12T09:40:21.178Z,100.00
2023-01-12T09:43:09.843Z,100.00
2023-01-12T09:45:56.483Z,100.00
2023-01-12T09:48:26.391Z,100.00
2023-01-12T09:51:04.657Z,100.00
2023-01-12T09:53:38.056Z,100.00
2023-01-12T09:56:19.815Z,100.00
2023-01-12T09:59:22.192Z,100.00
2023-01-12T10:01:54.162Z,100.00
2023-01-12T10:04:23.606Z,100.00
2023-01-12T10:06:54.485Z,100.00
2023-01-12T10:09:25.952Z,100.00
2023-01-12T10:12:08.895Z,100.00
2023-01-12T10:15:09.733Z,100.00
2023-01-12T10:17:51.564Z,100.00
2023-01-12T10:20:28.692Z,100.00
2023-01-12T10:23:12.051Z,100.00
2023-01-12T10:25:44.514Z,100.00
2023-01-12T10:28:22.861Z,100.00
2023-01-12T10:30:54.671Z,100.00
2023-01-12T10:33:28.035Z,100.00
2023-01-12T10:36:00.441Z,100.00
2023-01-12T10:38:34.955Z,100.00
2023-01-12T10:41:18.260Z,100.00
2023-01-12T10:44:06.727Z,100.00
2023-01-12T10:46:36.252Z,100.00
2023-01-12T10:49:19.350Z,99.72
2023-01-12T10:51:55.988Z,99.33
2023-01-12T10:54:29.076Z,97.43
2023-01-12T10:57:03.335Z,99.71
2023-01-12T10:59:35.513Z,98.48
2023-01-12T11:02:17.241Z,98.14
2023-01-12T11:04:49.342Z,98.86
2023-01-12T11:07:22.298Z,97.28
2023-01-12T11:09:54.113Z,100.00
2023-01-12T11:12:29.805Z,100.00
2023-01-12T11:15:03.145Z,95.23
2023-01-12T11:17:49.515Z,91.54
2023-01-12T11:20:25.864Z,88.58
2023-01-12T11:23:00.737Z,86.82
2023-01-12T11:25:37.324Z,86.80
2023-01-12T11:28:14.304Z,84.84
2023-01-12T11:30:51.702Z,78.46
2023-01-12T11:33:24.060Z,81.44
2023-01-12T11:36:01.088Z,81.46
2023-01-12T11:38:36.340Z,82.61
2023-01-12T11:41:23.488Z,83.35
2023-01-12T11:44:02.522Z,85.17
2023-01-12T11:46:38.744Z,83.36
2023-01-12T11:49:15.917Z,86.90
2023-01-12T11:51:45.389Z,77.29
2023-01-12T11:54:21.578Z,77.07
2023-01-12T11:57:15.011Z,75.65
2023-01-12T12:00:01.186Z,73.80
2023-01-12T12:02:38.148Z,75.34
2023-01-12T12:05:26.909Z,74.96
2023-01-12T12:08:14.553Z,72.36
2023-01-12T12:10:53.262Z,68.08
2023-01-12T12:13:32.853Z,73.48
2023-01-12T12:16:24.743Z,70.16
2023-01-12T12:19:23.630Z,72.98
2023-01-12T12:22:03.106Z,72.33
2023-01-12T12:25:14.001Z,68.39
2023-01-12T12:28:05.918Z,71.94
2023-01-12T12:30:59.472Z,68.14
2023-01-12T12:33:54.651Z,72.95
2023-01-12T12:36:32.480Z,74.53
2023-01-12T12:39:36.822Z,72.39
2023-01-12T12:42:39.561Z,70.14
2023-01-12T12:45:23.761Z,68.79
2023-01-12T12:48:09.601Z,70.56
2023-01-12T12:50:45.563Z,69.24
2023-01-12T12:53:23.755Z,68.91
2023-01-12T12:55:55.341Z,65.88
2023-01-12T12:58:32.127Z,63.81
2023-01-12T13:02:06.581Z,65.51
2023-01-12T13:05:05.240Z,65.10
2023-01-12T13:07:45.456Z,67.89
2023-01-12T13:10:27.746Z,68.70
2023-01-12T13:13:05.846Z,64.94
2023-01-12T13:15:37.907Z,66.07
2023-01-12T13:18:27.682Z,65.64
2023-01-12T13:20:59.791Z,63.15
2023-01-12T13:23:52.254Z,62.94
2023-01-12T13:26:41.928Z,64.15
2023-01-12T13:29:40.298Z,63.32
2023-01-12T13:32:58.230Z,65.92
2023-01-12T13:36:04.452Z,64.86
2023-01-12T13:39:06.480Z,65.52
2023-01-12T13:41:55.917Z,62.83
2023-01-12T13:44:31.724Z,61.94
2023-01-12T13:47:10.670Z,63.81
2023-01-12T13:49:48.259Z,64.18
2023-01-12T13:52:32.169Z,63.63
2023-01-12T13:55:02.100Z,64.35
2023-01-12T13:57:33.172Z,64.54
2023-01-12T14:00:09.038Z,66.14
2023-01-12T14:02:44.173Z,68.21
2023-01-12T14:05:38.943Z,68.99
2023-01-12T14:08:51.302Z,64.55
2023-01-12T14:12:01.230Z,64.61
2023-01-12T14:15:13.640Z,63.35
2023-01-12T14:17:57.653Z,53.85
2023-01-12T14:20:31.100Z,49.86
2023-01-12T14:23:24.169Z,48.07
2023-01-12T14:26:08.038Z,44.08
2023-01-12T14:28:38.097Z,43.36
2023-01-12T14:31:10.025Z,41.79
2023-01-12T14:33:41.115Z,42.18
2023-01-12T14:36:17.586Z,39.93
2023-01-12T14:38:48.343Z,39.71
2023-01-12T14:41:37.566Z,45.41
2023-01-12T14:44:25.169Z,50.54
2023-01-12T14:46:56.408Z,55.30
2023-01-12T14:49:30.128Z,57.97
2023-01-12T14:52:01.023Z,58.99
2023-01-12T14:54:33.854Z,60.61
2023-01-12T14:57:07.493Z,58.10
2023-01-12T14:59:43.484Z,52.35
2023-01-12T15:02:29.871Z,51.75
2023-01-12T15:05:02.633Z,52.51
2023-01-12T15:07:36.738Z,57.42
2023-01-12T15:10:30.829Z,63.00
2023-01-12T15:13:14.030Z,66.59
2023-01-12T15:16:03.773Z,69.84
2023-01-12T15:18:51.565Z,74.04
2023-01-12T15:21:40.748Z,75.63
2023-01-12T15:24:40.947Z,76.00
2023-01-12T15:27:13.660Z,77.29
2023-01-12T15:29:43.013Z,80.30
2023-01-12T15:32:19.585Z,83.40
2023-01-12T15:34:49.919Z,84.06
2023-01-12T15:37:20.892Z,85.57
2023-01-12T15:39:50.128Z,89.54
2023-01-12T15:42:26.667Z,91.01
2023-01-12T15:44:56.051Z,94.48
2023-01-12T15:47:25.501Z,97.04
2023-01-12T15:49:54.879Z,98.52
2023-01-12T15:52:26.291Z,100.00
2023-01-12T15:54:56.141Z,100.00
2023-01-12T15:57:26.858Z,100.00
2023-01-12T15:59:56.074Z,100.00
2023-01-12T16:02:35.716Z,100.00
2023-01-12T16:05:06.513Z,100.00
2023-01-12T16:07:35.644Z,100.00
2023-01-12T16:10:05.406Z,100.00
2023-01-12T16:12:37.219Z,100.00
2023-01-12T16:15:09.048Z,100.00
2023-01-12T16:17:38.397Z,100.00
2023-01-12T16:20:10.159Z,100.00
2023-01-12T16:22:39.942Z,100.00
2023-01-12T16:25:10.222Z,100.00
2023-01-12T16:27:41.145Z,100.00
2023-01-12T16:30:16.236Z,100.00
2023-01-12T16:32:47.341Z,100.00
2023-01-12T16:35:17.050Z,100.00
2023-01-12T16:37:46.178Z,100.00
2023-01-12T16:40:15.672Z,100.00
2023-01-12T16:42:46.289Z,100.00
2023-01-12T16:45:15.452Z,100.00
2023-01-12T16:47:44.620Z,100.00
2023-01-12T16:50:14.120Z,100.00
2023-01-12T16:52:43.321Z,100.00
2023-01-12T16:55:12.371Z,100.00
2023-01-12T16:57:43.136Z,100.00
2023-01-12T17:00:15.679Z,100.00
2023-01-12T17:02:45.052Z,100.00
2023-01-12T17:05:14.329Z,100.00
2023-01-12T17:07:43.488Z,100.00
2023-01-12T17:10:13.197Z,100.00
2023-01-12T17:12:51.925Z,100.00
2023-01-12T17:15:27.165Z,100.00
2023-01-12T17:17:57.626Z,100.00
2023-01-12T17:20:27.090Z,100.00
2023-01-12T17:22:56.479Z,100.00
2023-01-12T17:25:25.969Z,100.00
2023-01-12T17:27:56.193Z,100.00
2023-01-12T17:30:27.120Z,100.00
2023-01-12T17:33:02.463Z,100.00
2023-01-12T17:35:44.160Z,100.00
2023-01-12T17:38:13.343Z,100.00
2023-01-12T17:40:42.485Z,100.00
2023-01-12T17:43:14.729Z,100.00
2023-01-12T17:45:48.626Z,100.00
2023-01-12T17:48:19.655Z,100.00
2023-01-12T17:51:15.296Z,100.00
2023-01-12T17:53:44.402Z,100.00
2023-01-12T17:56:13.800Z,100.00
2023-01-12T17:58:42.981Z,100.00
2023-01-12T18:01:15.143Z,100.00
2023-01-12T18:03:44.520Z,100.00
2023-01-12T18:06:18.602Z,100.00
2023-01-12T18:08:57.316Z,100.00
2023-01-12T18:11:26.872Z,100.00
2023-01-12T18:13:56.671Z,100.00
2023-01-12T18:16:27.709Z,100.00
2023-01-12T18:18:57.375Z,100.00
2023-01-12T18:21:28.320Z,100.00
2023-01-12T18:23:58.456Z,100.00
2023-01-12T18:26:31.679Z,100.00
2023-01-12T18:29:03.972Z,100.00
2023-01-12T18:31:37.570Z,100.00
2023-01-12T18:34:08.795Z,100.00
2023-01-12T18:36:40.694Z,100.00
2023-01-12T18:39:13.699Z,100.00
2023-01-12T18:42:00.264Z,100.00
2023-01-12T18:44:31.047Z,100.00
2023-01-12T18:47:20.641Z,100.00
2023-01-12T18:49:57.693Z,100.00
2023-01-12T18:52:44.409Z,100.00
2023-01-12T18:55:13.982Z,100.00
2023-01-12T18:57:43.350Z,100.00
2023-01-12T19:00:17.977Z,100.00
2023-01-12T19:02:51.764Z,100.00
2023-01-12T19:05:25.511Z,100.00
2023-01-12T19:08:25.196Z,100.00
2023-01-12T19:10:54.443Z,100.00
2023-01-12T19:13:49.335Z,100.00
2023-01-12T19:16:35.864Z,100.00
2023-01-12T19:19:07.846Z,100.00
2023-01-12T19:21:54.663Z,100.00
2023-01-12T19:24:41.300Z,100.00
2023-01-12T19:27:31.505Z,100.00
2023-01-12T19:30:01.082Z,100.00
2023-01-12T19:32:30.445Z,100.00
2023-01-12T19:35:10.362Z,100.00
2023-01-12T19:37:40.699Z,100.00
2023-01-12T19:40:18.438Z,100.00
2023-01-12T19:43:05.476Z,100.00
2023-01-12T19:45:38.994Z,100.00
2023-01-12T19:48:09.786Z,100.00
2023-01-12T19:50:43.258Z,100.00
2023-01-12T19:53:16.101Z,100.00
2023-01-12T19:55:45.462Z,100.00
2023-01-12T19:58:15.762Z,100.00
2023-01-12T20:00:46.409Z,100.00
2023-01-12T20:03:18.473Z,100.00
2023-01-12T20:05:51.952Z,100.00
2023-01-12T20:08:23.363Z,100.00
2023-01-12T20:10:55.231Z,100.00
2023-01-12T20:13:24.480Z,100.00
2023-01-12T20:15:56.745Z,100.00
2023-01-12T20:18:25.957Z,100.00
2023-01-12T20:20:59.127Z,100.00
2023-01-12T20:23:28.580Z,100.00
2023-01-12T20:25:57.914Z,100.00
2023-01-12T20:28:27.450Z,100.00
2023-01-12T20:30:59.262Z,100.00
2023-01-12T20:33:29.335Z,100.00
2023-01-12T20:36:02.853Z,100.00
2023-01-12T20:38:32.220Z,100.00
2023-01-12T20:41:02.421Z,100.00
2023-01-12T20:43:31.627Z,100.00
2023-01-12T20:46:00.842Z,100.00
2023-01-12T20:48:30.115Z,100.00
2023-01-12T20:51:01.355Z,100.00
2023-01-12T20:53:31.609Z,100.00
2023-01-12T20:56:01.681Z,100.00
2023-01-12T20:58:30.943Z,100.00
2023-01-12T21:01:00.333Z,100.00
2023-01-12T21:03:29.769Z,100.00
2023-01-12T21:06:01.261Z,100.00
2023-01-12T21:08:30.477Z,100.00
2023-01-12T21:11:00.683Z,100.00
2023-01-12T21:13:30.081Z,100.00
2023-01-12T21:16:01.405Z,100.00
2023-01-12T21:18:31.631Z,100.00
2023-01-12T21:21:02.539Z,100.00
2023-01-12T21:23:31.749Z,100.00
2023-01-12T21:26:01.071Z,100.00
2023-01-12T21:28:30.866Z,100.00
2023-01-12T21:31:02.848Z,100.00
2023-01-12T21:33:32.407Z,100.00
2023-01-12T21:36:03.294Z,100.00
2023-01-12T21:38:32.791Z,100.00
2023-01-12T21:41:04.893Z,100.00
2023-01-12T21:43:35.080Z,100.00
2023-01-12T21:46:07.744Z,100.00
2023-01-12T21:48:37.589Z,100.00
2023-01-12T21:51:11.903Z,100.00
2023-01-12T21:53:42.001Z,100.00
2023-01-12T21:56:13.810Z,100.00
2023-01-12T21:58:43.027Z,100.00
2023-01-12T22:01:14.397Z,100.00
2023-01-12T22:03:43.992Z,100.00
2023-01-12T22:06:16.007Z,100.00
2023-01-12T22:08:45.218Z,100.00
2023-01-12T22:11:16.918Z,100.00
2023-01-12T22:13:46.942Z,100.00
2023-01-12T22:16:17.574Z,100.00
2023-01-12T22:18:50.245Z,100.00
2023-01-12T22:21:22.144Z,100.00
2023-01-12T22:23:51.291Z,100.00
2023-01-12T22:26:20.680Z,100.00
2023-01-12T22:28:50.680Z,100.00
2023-01-12T22:31:22.528Z,100.00
2023-01-12T22:34:03.998Z,100.00
2023-01-12T22:36:42.777Z,100.00
2023-01-12T22:39:13.354Z,100.00
2023-01-12T22:41:42.690Z,100.00
2023-01-12T22:44:11.835Z,100.00
2023-01-12T22:46:41.113Z,100.00
2023-01-12T22:49:10.374Z,100.00
2023-01-12T22:51:41.112Z,100.00
2023-01-12T22:54:10.489Z,100.00
2023-01-12T22:56:39.659Z,100.00
2023-01-12T22:59:09.886Z,100.00
2023-01-12T23:01:39.124Z,100.00
2023-01-12T23:04:12.784Z,100.00
2023-01-12T23:06:43.334Z,100.00
2023-01-12T23:09:13.455Z,100.00
2023-01-12T23:11:42.521Z,100.00
2023-01-12T23:14:11.596Z,100.00
2023-01-12T23:16:40.683Z,100.00
2023-01-12T23:19:10.231Z,100.00
2023-01-12T23:21:41.515Z,100.00
2023-01-12T23:24:11.985Z,100.00
2023-01-12T23:26:41.026Z,100.00
2023-01-12T23:29:10.216Z,100.00
2023-01-12T23:31:39.389Z,100.00
2023-01-12T23:34:08.539Z,100.00
2023-01-12T23:36:37.921Z,100.00
2023-01-12T23:39:09.508Z,100.00
2023-01-12T23:41:40.419Z,100.00
2023-01-12T23:44:11.368Z,100.00
2023-01-12T23:46:43.139Z,100.00
2023-01-12T23:49:12.626Z,100.00
2023-01-12T23:51:41.772Z,100.00
2023-01-12T23:54:17.738Z,100.00
2023-01-12T23:56:52.110Z,100.00
2023-01-12T23:59:21.358Z,100.00
